Stations météo

réclame
Mon MeteoGroup
Kahler Asten, Allemagne (10427): Température de l'air & dewpoint: 14.10.2018 19:00:00 - 20.10.2018 19:00:00 (CEST)Kahler Asten, Allemagne (10427): Température de l'air 5cm & Température de l'air -5cm: 14.10.2018 19:00:00 - 20.10.2018 19:00:00 (CEST)Kahler Asten, Allemagne (10427): Température de l'air -20cm & Température de l'air -100cm: 14.10.2018 19:00:00 - 20.10.2018 19:00:00 (CEST)Kahler Asten, Allemagne (10427): Vitesse du vent & gusts: 14.10.2018 19:00:00 - 20.10.2018 19:00:00 (CEST)Kahler Asten, Allemagne (10427): Direction du vent: 14.10.2018 19:00:00 - 20.10.2018 19:00:00 (CEST)Kahler Asten, Allemagne (10427): visibility: 14.10.2018 19:00:00 - 20.10.2018 19:00:00 (CEST)Kahler Asten, Allemagne (10427): Ensoleillement: 14.10.2018 19:00:00 - 20.10.2018 19:00:00 (CEST)Kahler Asten, Allemagne (10427): Quantités de précipitations: 14.10.2018 19:00:00 - 20.10.2018 19:00:00 (CEST)
Date & Time tt [°C] td [°C] tt 5cm [°C] tt -5cm [°C] tt -20cm [°C] tt -100cm [°C] ff [km/h] ff [knt] fx [km/h] fx [knt] dd vv [km] sd [min] rr [mm]
20.10.2018 19:00:00 5,2 2,7 3,6 9,0 11,1 11,6 22 12 29 15 N 17 0 0,0
20.10.2018 18:00:00 6,5 2,9 5,4 10,5 11,1 11,6 19 10 26 14 N 18 1 0,0
20.10.2018 17:00:00 8,2 3,0 8,0 12,0 11,0 11,6 14 7 23 13 N 28 34 0,0
20.10.2018 16:00:00 9,2 2,4 12,3 13,3 10,7 11,6 14 7 19 10 N 34 60 0,0
20.10.2018 15:00:00 9,8 1,8 14,8 14,4 10,3 11,6 11 6 16 8 N 27 60 0,0
20.10.2018 14:00:00 9,3 3,3 14,2 14,6 9,9 11,6 8 4 17 9 N 23 60 0,0
20.10.2018 13:00:00 7,5 3,2 11,6 13,2 9,6 11,6 9 5 16 9 NE 16 60 0,0
20.10.2018 12:00:00 6,0 3,0 10,0 10,9 9,5 11,6 14 8 26 14 N 12 39 0,0
20.10.2018 11:00:00 4,4 4,0 5,9 8,6 9,5 11,6 16 8 21 11 N 1,5 0 0,0
20.10.2018 10:00:00 4,5 4,2 5,1 7,7 9,5 11,6 13 7 23 12 N 0,2 0 0,0
20.10.2018 09:00:00 4,9 4,6 5,1 7,5 9,6 11,6 15 8 22 12 NNW 0,3 0 0,0
20.10.2018 08:00:00 5,3 4,9 5,2 7,2 9,7 11,6 13 7 29 15 NNW 2,0 0 0,0
20.10.2018 07:00:00 5,5 5,2 5,5 7,6 9,7 11,6 21 11 28 15 NNW 0,5 0 0,0
20.10.2018 06:00:00 5,9 5,7 5,9 7,6 9,8 11,6 12 6 21 11 N 0,1 0 0,0
20.10.2018 05:00:00 6,4 6,2 6,3 7,4 10,0 11,6 16 9 23 12 N 0,1 0 0,0
20.10.2018 04:00:00 6,5 5,9 4,9 6,5 10,3 11,6 14 8 20 11 NNW 1,9 0 0,0
20.10.2018 03:00:00 7,1 5,9 3,7 7,1 10,5 11,6 11 6 17 9 NNW 6 0 0,0
20.10.2018 02:00:00 7,8 5,3 6,4 7,8 10,7 11,7 17 9 22 12 NW 12 0 0,0
20.10.2018 01:00:00 8,1 4,8 5,6 8,5 10,9 11,7 10 5 15 8 WNW 16 0 0,0
20.10.2018 00:00:00 7,5 6,4 4,5 8,6 11,0 11,7 7 4 9 5 E 7 0 0,0
19.10.2018 23:00:00 8,1 6,7 7,4 9,4 11,1 11,7 7 4 9 5 ENE 8 0 0,0
19.10.2018 22:00:00 8,5 6,8 6,6 9,6 11,3 11,7 6 3 7 4 SE 9 0 0,0
19.10.2018 21:00:00 8,6 7,0 7,5 10,2 11,4 11,7 4 2 5 3 SE 8 0 0,0
19.10.2018 20:00:00 8,9 7,0 8,3 10,6 11,4 11,7 4 2 9 5 SE 9 0 0,0
19.10.2018 19:00:00 8,9 6,9 8,7 10,9 11,5 11,7 5 3 10 5 ESE 11 0 0,0
19.10.2018 18:00:00 9,2 6,8 9,2 11,3 11,5 11,7 6 3 11 6 SE 12 0 0,0
19.10.2018 17:00:00 9,7 6,5 10,2 11,8 11,4 11,7 6 3 10 6 SE 17 0 0,0
19.10.2018 16:00:00 10,0 6,0 9,8 12,7 11,2 11,7 5 3 13 7 S 17 25 0,0
19.10.2018 15:00:00 9,8 5,9 10,7 13,2 10,9 11,7 8 4 16 8 SSE 18 18 0,0
19.10.2018 14:00:00 9,2 6,8 10,9 12,3 10,7 11,7 5 3 16 8 ESE 11 5 0,0
19.10.2018 13:00:00 8,7 7,5 10,0 11,5 10,5 11,7 6 3 12 6 ESE 7 2 0,0
19.10.2018 12:00:00 8,1 7,6 9,2 10,5 10,5 11,7 10 5 14 8 ESE 3,4 0 0,0
19.10.2018 11:00:00 7,8 7,5 8,7 10,0 10,5 11,7 8 4 17 9 ENE 2,9 0 0,0
19.10.2018 10:00:00 7,5 7,3 7,8 9,3 10,5 11,7 10 5 16 9 ESE 0,1 0 0,0
19.10.2018 09:00:00 7,4 7,2 7,6 9,1 10,5 11,7 8 4 17 9 E 0,1 0 0,0
19.10.2018 08:00:00 7,4 7,2 7,3 9,0 10,6 11,7 10 5 20 11 ENE 0,1 0 0,0
19.10.2018 07:00:00 7,3 7,1 7,3 9,0 10,7 11,7 12 6 23 12 ENE 0,2 0 0,0
19.10.2018 06:00:00 7,3 7,0 7,2 9,0 10,8 11,7 12 6 21 12 ENE 0,3 0 0,0
19.10.2018 05:00:00 7,2 7,0 7,2 9,1 10,9 11,7 10 5 26 14 ENE 0,1 0 0,0
19.10.2018 04:00:00 7,4 7,1 7,4 9,2 11,0 11,7 13 7 27 15 ENE 1,3 0 0,0
19.10.2018 03:00:00 7,5 7,2 7,4 9,4 11,0 11,7 19 10 29 15 ENE 0,6 0 0,0
19.10.2018 02:00:00 7,8 7,5 7,7 9,5 11,1 11,7 16 9 28 15 E 0,1 0 0,0
19.10.2018 01:00:00 8,1 7,8 8,1 9,6 11,2 11,7 16 9 29 16 ENE 0,1 0 0,1
19.10.2018 00:00:00 8,3 8,0 8,1 9,6 11,3 11,7 16 9 25 14 NE 3,6 0 0,0
18.10.2018 23:00:00 8,2 7,8 8,0 9,5 11,5 11,7 13 7 23 13 NE 3,7 0 0,0
18.10.2018 22:00:00 8,1 7,7 7,2 9,4 11,7 11,7 18 10 25 14 NNE 3,7 0 0,0
18.10.2018 21:00:00 8,0 7,6 6,8 9,5 11,9 11,7 19 10 26 14 NNE 2,6 0 0,0
18.10.2018 20:00:00 8,4 7,8 8,0 9,9 12,1 11,7 19 11 26 14 NNE 3,8 0 0,0
18.10.2018 19:00:00 8,0 6,5 5,9 10,3 12,3 11,7 16 9 21 11 NNE 11 0 0,0
18.10.2018 18:00:00 9,2 6,3 8,6 11,6 12,3 11,7 12 6 21 11 N 18 31 0,0
18.10.2018 17:00:00 9,8 6,9 9,6 12,8 12,3 11,7 14 8 24 13 N 14 0 0,0
18.10.2018 16:00:00 9,9 8,0 10,5 13,5 12,2 11,7 16 9 26 14 N 7 0 0,0
18.10.2018 15:00:00 10,5 8,2 12,7 14,0 12,0 11,7 10 6 23 12 N 8 2 0,0
18.10.2018 14:00:00 9,8 8,9 11,7 13,7 11,8 11,7 13 7 24 13 N 2,8 0 0,0
18.10.2018 13:00:00 10,1 9,2 11,8 13,6 11,6 11,7 18 10 27 14 N 3,2 7 0,0
18.10.2018 12:00:00 11,5 9,1 15,0 13,3 11,4 11,7 16 9 30 16 N 8 17 0,0
18.10.2018 11:00:00 10,7 9,7 11,9 12,6 11,3 11,7 16 9 26 14 N 2,9 44 0,0
18.10.2018 10:00:00 10,1 9,8 11,0 10,9 11,3 11,7 18 10 33 18 NNE 1,8 7 0,0
18.10.2018 09:00:00 9,6 9,4 9,7 10,3 11,3 11,7 25 13 37 20 N 0,1 0 0,0
18.10.2018 08:00:00 9,2 9,0 9,2 10,1 11,4 11,7 27 15 36 19 N 0,1 0 0,0
18.10.2018 07:00:00 9,3 9,1 9,3 10,0 11,4 11,7 22 12 31 17 N - 0 0,0
18.10.2018 06:00:00 9,5 9,3 9,4 9,6 11,6 11,7 23 13 31 17 N - 0 0,0
18.10.2018 05:00:00 12,3 9,2 9,2 9,2 11,8 11,7 16 9 19 10 N 8 0 0,0
18.10.2018 04:00:00 12,6 9,3 9,2 9,3 12,0 11,7 16 9 18 10 N 9 0 0,0
18.10.2018 03:00:00 12,7 9,3 9,5 9,6 12,2 11,7 14 7 16 9 N 8 0 0,0
18.10.2018 02:00:00 12,8 8,9 9,2 9,8 12,4 11,7 14 7 16 8 N 11 0 0,0
18.10.2018 01:00:00 12,5 8,7 9,0 10,2 12,6 11,7 14 7 18 10 N 9 0 0,0
18.10.2018 00:00:00 12,7 8,6 8,5 10,5 12,9 11,7 11 6 16 8 N 10 0 0,0
17.10.2018 23:00:00 12,8 8,2 9,0 11,0 13,1 11,7 13 7 16 9 N 38 0 0,0
17.10.2018 22:00:00 14,0 8,3 9,5 11,4 13,4 11,7 10 5 11 6 NE 38 0 0,0
17.10.2018 21:00:00 14,2 8,4 9,7 12,0 13,6 11,7 10 5 16 9 ENE 41 0 0,0
17.10.2018 20:00:00 14,1 8,4 11,5 12,9 13,8 11,7 14 8 21 12 NE 44 0 0,0
17.10.2018 19:00:00 14,4 8,5 12,0 13,8 13,9 11,7 16 9 21 12 NNE 45 0 0,0
17.10.2018 18:00:00 16,0 9,0 13,6 15,2 13,8 11,7 13 7 18 10 N 46 0 0,0
17.10.2018 17:00:00 17,5 8,9 16,2 16,5 13,6 11,7 5 3 8 4 N 50 16 0,0
17.10.2018 16:00:00 18,1 9,0 19,9 17,5 13,2 11,7 6 3 14 7 ENE 51 29 0,0
17.10.2018 15:00:00 18,5 8,3 21,9 19,3 12,7 11,7 9 5 16 9 N 42 60 0,0
17.10.2018 14:00:00 18,7 8,4 22,4 18,9 12,2 11,7 4 2 14 8 N 55 60 0,0
17.10.2018 13:00:00 17,9 8,2 20,2 17,6 11,7 11,7 8 4 19 10 NE 51 60 0,0
17.10.2018 12:00:00 16,9 7,4 20,7 15,4 11,3 11,6 10 5 17 9 NNW 44 60 0,0
17.10.2018 11:00:00 16,5 7,9 19,9 13,6 11,2 11,6 11 6 15 8 N 47 60 0,0
17.10.2018 10:00:00 15,6 7,4 17,0 11,1 11,2 11,6 4 2 8 4 NW 44 60 0,0
17.10.2018 09:00:00 14,2 7,0 10,7 8,9 11,3 11,6 3 1 12 6 NNW 66 11 0,0
17.10.2018 08:00:00 14,0 7,0 7,4 8,5 11,5 11,6 6 3 12 6 W 70 0 0,0
17.10.2018 07:00:00 14,0 7,5 5,7 8,8 11,7 11,6 2 1 4 2 E 51 0 0,0
17.10.2018 06:00:00 14,1 7,5 7,9 9,2 11,9 11,6 4 2 8 5 SSW 43 0 0,0
17.10.2018 05:00:00 14,7 7,5 10,2 9,4 12,2 11,6 6 4 7 4 S 41 0 0,0
17.10.2018 04:00:00 14,2 7,6 7,2 9,6 12,4 11,6 6 3 7 4 S 46 0 0,0
17.10.2018 03:00:00 14,3 7,6 8,3 10,1 12,6 11,6 7 4 13 7 SSE 40 0 0,0
17.10.2018 02:00:00 14,0 7,7 9,5 10,6 12,9 11,6 12 6 15 8 SE 36 0 0,0
17.10.2018 01:00:00 14,0 7,8 9,7 11,1 13,1 11,6 13 7 14 8 SE 39 0 0,0
17.10.2018 00:00:00 14,6 7,7 11,4 11,5 13,3 11,6 10 5 11 6 SE 70 0 0,0
16.10.2018 23:00:00 14,6 7,5 11,4 12,2 13,4 11,6 11 6 13 7 ESE 70 0 0,0
16.10.2018 22:00:00 14,9 8,2 12,8 12,8 13,6 11,6 9 5 17 9 ESE 69 0 0,0
16.10.2018 21:00:00 14,1 8,5 12,8 13,0 13,8 11,6 14 8 16 9 E 70 0 0,0
16.10.2018 20:00:00 14,2 8,9 11,8 13,4 14,0 11,6 11 6 15 8 ESE 52 0 0,0
16.10.2018 19:00:00 14,5 9,2 12,7 14,2 14,0 11,6 11 6 15 8 E 52 1 0,0
16.10.2018 18:00:00 16,0 9,7 14,9 15,3 14,0 11,6 7 4 16 9 E 41 60 0,0
16.10.2018 17:00:00 16,7 8,7 16,2 16,4 13,9 11,6 7 4 22 12 ENE 41 45 0,0
16.10.2018 16:00:00 17,2 8,6 17,0 17,3 13,6 11,6 14 7 23 13 NE 51 3 0,0
16.10.2018 15:00:00 17,9 7,9 19,8 18,4 13,2 11,6 14 8 28 15 NNE 49 15 0,0
16.10.2018 14:00:00 18,0 7,6 19,6 19,1 12,6 11,6 20 11 32 17 NNE 42 37 0,0
16.10.2018 13:00:00 18,9 9,1 22,9 19,0 12,1 11,6 15 8 26 14 N 26 60 0,0
16.10.2018 12:00:00 17,5 9,7 21,6 16,8 11,8 11,6 15 8 27 15 N 36 60 0,0
16.10.2018 11:00:00 16,4 9,2 19,4 14,4 11,5 11,6 18 10 29 16 N 30 57 0,0
16.10.2018 10:00:00 15,2 8,5 15,3 12,0 11,5 11,6 19 10 29 16 N 40 24 0,0
16.10.2018 09:00:00 14,6 7,8 14,6 10,5 11,5 11,6 19 10 25 14 NNW 43 8 0,0
16.10.2018 08:00:00 13,9 7,4 11,4 9,9 11,6 11,6 18 10 29 16 NNW 48 0 0,0
16.10.2018 07:00:00 14,2 7,2 12,1 10,1 11,7 11,6 23 12 29 16 NNW 48 0 0,0
16.10.2018 06:00:00 14,4 6,9 12,0 10,1 11,8 11,6 24 13 31 17 NNW 47 0 0,0
16.10.2018 05:00:00 14,7 6,5 12,7 10,3 12,0 11,6 24 13 31 17 NNW 50 0 0,0
16.10.2018 04:00:00 14,9 5,9 12,7 10,1 12,1 11,6 24 13 29 16 NNW 50 0 0,0
16.10.2018 03:00:00 15,0 4,8 12,3 9,9 12,4 11,6 21 12 26 14 NNW 62 0 0,0
16.10.2018 02:00:00 15,5 4,1 11,7 10,0 12,6 11,6 19 11 23 12 NNW 65 0 0,0
16.10.2018 01:00:00 15,8 4,0 10,1 10,3 12,8 11,6 17 9 19 11 N 70 0 0,0
16.10.2018 00:00:00 16,3 3,9 11,1 10,8 13,1 11,6 16 9 20 11 N 70 0 0,0
15.10.2018 23:00:00 16,4 4,0 11,6 11,3 13,4 11,6 16 9 22 12 NNW 70 0 0,0
15.10.2018 22:00:00 16,1 5,1 10,9 11,7 13,6 11,6 13 7 15 8 WNW 70 0 0,0
15.10.2018 21:00:00 16,5 5,1 12,9 12,6 13,8 11,6 14 8 18 10 W 70 0 0,0
15.10.2018 20:00:00 16,9 5,0 13,3 13,4 14,0 11,5 11 6 18 10 WNW 70 0 0,0
15.10.2018 19:00:00 17,3 5,1 13,6 14,4 14,1 11,5 14 7 17 9 W 70 0 0,0
15.10.2018 18:00:00 19,0 5,5 15,7 15,9 14,0 11,5 9 5 16 9 WSW 70 57 0,0
15.10.2018 17:00:00 20,4 5,1 18,7 17,4 13,7 11,5 9 5 18 10 W 67 60 0,0
15.10.2018 16:00:00 20,9 5,7 22,4 18,1 13,3 11,5 12 6 20 11 S 59 60 0,0
15.10.2018 15:00:00 20,6 6,0 22,8 19,0 12,8 11,5 11 6 22 12 SSW 50 60 0,0
15.10.2018 14:00:00 20,3 7,3 22,9 19,0 12,3 11,5 10 5 19 10 SW 41 60 0,0
15.10.2018 13:00:00 19,0 8,1 20,6 17,9 11,9 11,5 10 6 21 11 WSW 44 60 0,0
15.10.2018 12:00:00 18,0 7,9 20,4 16,6 11,5 11,5 15 8 23 12 SW 43 52 0,0
15.10.2018 11:00:00 17,3 6,5 19,3 14,2 11,4 11,5 15 8 22 12 SW 51 56 0,0
15.10.2018 10:00:00 15,0 5,8 13,9 11,0 11,4 11,5 17 9 24 13 SW 55 16 0,0
15.10.2018 09:00:00 15,2 4,4 13,4 9,9 11,5 11,5 21 11 26 14 SW 61 4 0,0
15.10.2018 08:00:00 15,2 3,6 13,0 9,9 11,6 11,5 17 9 26 14 SW 58 0 0,0
15.10.2018 07:00:00 15,1 3,2 12,7 9,7 11,8 11,5 20 11 27 15 WSW 68 0 0,0
15.10.2018 06:00:00 15,0 2,9 12,0 9,8 11,9 11,5 21 11 31 17 WSW 67 0 0,0
15.10.2018 05:00:00 14,9 4,5 12,4 10,1 12,1 11,5 19 11 34 18 SW 59 0 0,0
15.10.2018 04:00:00 14,6 6,7 12,3 10,3 12,3 11,5 21 12 35 19 SSW 44 0 0,0
15.10.2018 03:00:00 14,3 6,8 11,8 10,4 12,5 11,5 22 12 29 16 S 43 0 0,0
15.10.2018 02:00:00 14,0 6,8 11,5 10,6 12,7 11,5 22 12 32 17 S 40 0 0,0
15.10.2018 01:00:00 14,0 7,6 11,4 11,0 12,9 11,5 24 13 34 18 S 37 0 0,0
15.10.2018 00:00:00 14,7 8,0 12,7 11,4 13,1 11,5 27 15 39 21 S 31 0 0,0
14.10.2018 23:00:00 14,4 8,4 12,1 11,6 13,3 11,5 26 14 35 19 S 27 0 0,0
14.10.2018 22:00:00 14,3 7,9 11,9 12,1 13,5 11,4 23 13 35 19 S 36 0 0,0
14.10.2018 21:00:00 15,0 8,2 12,7 12,6 13,8 11,4 21 11 31 17 SSE 42 0 0,0
14.10.2018 20:00:00 15,5 8,5 13,1 13,3 14,0 11,4 23 13 33 18 SE 43 0 0,0
14.10.2018 19:00:00 15,4 8,6 13,0 14,2 14,1 11,4 22 12 29 16 SE 39 8 0,0

tt = Température de l'air
td = dewpoint
tt 5cm = Température de l'air 5cm
tt -5cm = Température de l'air -5cm
tt -20cm = Température de l'air -20cm
tt -100cm = Température de l'air -100cm
ff = Vitesse du vent
fx = gusts
dd = Direction du vent
vv = visibility
sd = Ensoleillement
rr = Quantités de précipitations

stations d'obs. à proximité